CDT,Max TemperatureF,Mean TemperatureF,Min TemperatureF,Max Dew PointF,MeanDew PointF,Min DewpointF,Max Humidity, Mean Humidity, Min Humidity, Max Sea Level PressureIn, Mean Sea Level PressureIn, Min Sea Level PressureIn, Max VisibilityMiles, Mean VisibilityMiles, Min VisibilityMiles, Max Wind SpeedMPH, Mean Wind SpeedMPH, Max Gust SpeedMPH,PrecipitationIn, CloudCover, Events, WindDirDegrees
2014-3-1,10,3,-4,5,-8,-13,79,71,65,30.49,30.36,30.16,10,5,0,25,19,32,0.00,6,Snow,6
2014-3-2,-4,-9,-14,-13,-18,-22,71,61,50,30.57,30.51,30.47,10,10,10,18,12,,0.00,1,,335
2014-3-3,14,2,-11,5,-8,-20,73,65,57,30.51,30.33,30.12,10,10,10,18,11,23,0.00,2,,186
2014-3-4,19,11,3,12,6,-2,86,73,62,30.15,30.06,30.00,10,10,9,17,12,20,0.00,3,Snow,123
2014-3-5,21,18,14,19,15,12,100,90,80,30.32,30.26,30.15,10,7,3,20,14,20,0.00,7,,86
2014-3-6,33,26,19,32,25,18,100,96,87,30.27,30.01,29.78,7,4,2,28,18,33,0.00,4,,177
2014-3-7,35,27,19,34,26,16,100,90,80,30.18,29.92,29.71,10,7,2,29,18,38,0.00,4,,328
2014-3-8,26,18,10,19,14,7,93,81,69,30.32,30.26,30.18,10,10,10,18,12,,0.00,1,,337
2014-3-9,55,36,17,41,29,16,93,68,50,30.20,29.90,29.75,10,10,10,24,15,29,0.00,0,,226
2014-3-10,62,50,39,48,39,30,100,68,52,29.78,29.72,29.66,10,10,10,15,10,,0.00,0,,286
2014-3-11,42,37,30,41,35,27,100,92,76,30.05,29.79,29.60,10,9,0,31,18,41,0.01,3,Snow,33
2014-3-12,35,30,24,30,25,21,100,85,74,30.14,30.09,30.04,10,10,9,22,12,31,0.00,5,Snow,341
2014-3-13,60,45,30,37,31,27,100,67,34,30.04,29.84,29.60,10,10,8,24,12,31,0.00,1,,221
2014-3-14,50,42,32,34,31,25,93,67,40,29.96,29.80,29.60,10,10,10,26,15,36,0.00,2,,307
2014-3-15,37,32,26,32,26,21,100,82,52,30.30,30.05,29.92,10,9,2,28,15,36,0.00,4,Snow,67
2014-3-16,32,26,19,21,13,5,86,64,34,30.39,30.26,30.02,10,10,10,18,13,24,0.00,2,,54
2014-3-17,50,37,24,28,23,18,80,60,40,30.01,29.63,29.45,10,10,10,28,19,33,0.00,3,,187
2014-3-18,48,39,30,36,30,27,100,77,53,29.76,29.55,29.45,10,8,0,26,15,33,0.01,4,Rain-Snow,95
2014-3-19,44,36,28,30,28,25,100,80,53,30.02,29.94,29.77,10,9,2,23,17,29,0.00,6,Rain,306
2014-3-20,51,40,28,36,31,27,100,76,38,30.02,29.94,29.84,10,10,10,16,9,21,0.00,1,,139
2014-3-21,50,38,26,36,29,19,87,71,50,30.22,29.91,29.74,10,10,10,30,18,40,0.00,2,,308
2014-3-22,26,20,14,19,9,5,80,60,40,30.49,30.37,30.22,10,10,10,22,17,29,0.00,1,,357
2014-3-23,32,22,12,23,9,5,86,60,35,30.50,30.42,30.29,10,10,3,12,5,15,0.00,3,,50
2014-3-24,37,30,24,25,17,14,80,63,41,30.31,30.23,30.17,10,10,9,25,9,31,0.00,6,,269
2014-3-25,30,22,15,19,7,0,86,54,27,30.33,30.23,30.14,10,10,1,21,12,31,0.00,2,Snow,316
2014-3-26,59,38,17,39,20,3,87,50,29,30.13,29.80,29.54,10,10,9,37,19,48,0.00,2,,171
2014-3-27,42,37,32,43,38,30,100,99,87,29.77,29.48,29.35,10,5,0,30,20,39,0.01,8,Fog-Rain-Snow,105
2014-3-28,32,28,24,30,27,25,100,90,80,30.24,30.05,29.79,10,10,9,20,12,29,0.00,8,,8
2014-3-29,50,36,23,32,27,19,100,74,47,30.28,30.19,30.01,10,10,10,20,9,26,0.00,2,,154
2014-3-30,71,54,37,37,34,30,75,51,25,30.01,29.83,29.68,10,10,7,29,19,37,0.00,0,,185
2014-3-31,75,47,19,46,34,12,93,62,25,29.74,29.53,29.33,10,10,5,41,22,52,0.00,3,Snow,193